sensor_id;sensor_type;location;lat;lon;timestamp;P1;durP1;ratioP1;P2;durP2;ratioP2
61344;SDS011;47216;42.656;23.232;2023-12-20T00:00:44;15.17;;;8.23;;
61344;SDS011;47216;42.656;23.232;2023-12-20T00:03:11;13.23;;;7.83;;
61344;SDS011;47216;42.656;23.232;2023-12-20T00:05:38;14.93;;;8.37;;
61344;SDS011;47216;42.656;23.232;2023-12-20T00:08:06;17.57;;;8.63;;
61344;SDS011;47216;42.656;23.232;2023-12-20T00:10:33;20.10;;;7.83;;
61344;SDS011;47216;42.656;23.232;2023-12-20T00:12:59;13.00;;;6.67;;
61344;SDS011;47216;42.656;23.232;2023-12-20T00:15:26;17.63;;;8.50;;
61344;SDS011;47216;42.656;23.232;2023-12-20T00:17:54;19.27;;;8.70;;
61344;SDS011;47216;42.656;23.232;2023-12-20T00:20:21;19.50;;;9.70;;
61344;SDS011;47216;42.656;23.232;2023-12-20T00:22:48;17.13;;;8.40;;
61344;SDS011;47216;42.656;23.232;2023-12-20T00:25:15;13.93;;;7.00;;
61344;SDS011;47216;42.656;23.232;2023-12-20T00:27:41;15.57;;;8.03;;
61344;SDS011;47216;42.656;23.232;2023-12-20T00:30:09;15.77;;;6.90;;
61344;SDS011;47216;42.656;23.232;2023-12-20T00:32:37;13.30;;;7.10;;
61344;SDS011;47216;42.656;23.232;2023-12-20T00:35:06;12.47;;;7.17;;
61344;SDS011;47216;42.656;23.232;2023-12-20T00:37:33;16.37;;;7.30;;
61344;SDS011;47216;42.656;23.232;2023-12-20T00:39:59;9.77;;;6.57;;
61344;SDS011;47216;42.656;23.232;2023-12-20T00:42:26;12.07;;;6.70;;
61344;SDS011;47216;42.656;23.232;2023-12-20T00:44:53;10.93;;;6.20;;
61344;SDS011;47216;42.656;23.232;2023-12-20T00:47:20;13.17;;;7.50;;
61344;SDS011;47216;42.656;23.232;2023-12-20T00:49:47;11.73;;;6.07;;
61344;SDS011;47216;42.656;23.232;2023-12-20T00:52:15;13.40;;;7.07;;
61344;SDS011;47216;42.656;23.232;2023-12-20T00:54:42;23.53;;;9.03;;
61344;SDS011;47216;42.656;23.232;2023-12-20T00:57:09;20.40;;;9.67;;
61344;SDS011;47216;42.656;23.232;2023-12-20T00:59:36;18.87;;;10.43;;
61344;SDS011;47216;42.656;23.232;2023-12-20T01:02:03;18.53;;;8.83;;
61344;SDS011;47216;42.656;23.232;2023-12-20T01:04:30;22.40;;;8.97;;
61344;SDS011;47216;42.656;23.232;2023-12-20T01:06:57;15.23;;;8.57;;
61344;SDS011;47216;42.656;23.232;2023-12-20T01:09:25;20.53;;;9.03;;
61344;SDS011;47216;42.656;23.232;2023-12-20T01:11:52;18.30;;;9.63;;
61344;SDS011;47216;42.656;23.232;2023-12-20T01:14:19;12.50;;;5.40;;
61344;SDS011;47216;42.656;23.232;2023-12-20T01:16:46;10.93;;;5.43;;
61344;SDS011;47216;42.656;23.232;2023-12-20T01:19:13;11.97;;;5.63;;
61344;SDS011;47216;42.656;23.232;2023-12-20T01:21:40;8.93;;;5.20;;
61344;SDS011;47216;42.656;23.232;2023-12-20T01:24:07;10.40;;;5.27;;
61344;SDS011;47216;42.656;23.232;2023-12-20T01:26:35;13.37;;;6.27;;
61344;SDS011;47216;42.656;23.232;2023-12-20T01:29:02;10.37;;;6.13;;
61344;SDS011;47216;42.656;23.232;2023-12-20T01:31:29;8.00;;;5.47;;
61344;SDS011;47216;42.656;23.232;2023-12-20T01:33:55;13.87;;;6.40;;
61344;SDS011;47216;42.656;23.232;2023-12-20T01:36:22;10.00;;;5.43;;
61344;SDS011;47216;42.656;23.232;2023-12-20T01:38:49;8.33;;;4.83;;
61344;SDS011;47216;42.656;23.232;2023-12-20T01:41:16;23.53;;;10.40;;
61344;SDS011;47216;42.656;23.232;2023-12-20T01:43:44;37.90;;;16.33;;
61344;SDS011;47216;42.656;23.232;2023-12-20T01:46:10;14.93;;;6.87;;
61344;SDS011;47216;42.656;23.232;2023-12-20T01:48:38;32.03;;;13.63;;
61344;SDS011;47216;42.656;23.232;2023-12-20T01:51:05;30.37;;;13.10;;
61344;SDS011;47216;42.656;23.232;2023-12-20T01:53:32;7.63;;;5.60;;
61344;SDS011;47216;42.656;23.232;2023-12-20T01:55:59;8.13;;;5.43;;
61344;SDS011;47216;42.656;23.232;2023-12-20T01:58:26;15.47;;;5.03;;
61344;SDS011;47216;42.656;23.232;2023-12-20T02:00:55;9.27;;;5.17;;
61344;SDS011;47216;42.656;23.232;2023-12-20T02:03:23;15.03;;;7.47;;
61344;SDS011;47216;42.656;23.232;2023-12-20T02:05:50;42.77;;;13.80;;
61344;SDS011;47216;42.656;23.232;2023-12-20T02:08:17;38.93;;;13.50;;
61344;SDS011;47216;42.656;23.232;2023-12-20T02:10:44;50.17;;;17.63;;
61344;SDS011;47216;42.656;23.232;2023-12-20T02:13:11;74.47;;;24.67;;
61344;SDS011;47216;42.656;23.232;2023-12-20T02:15:37;30.40;;;11.80;;
61344;SDS011;47216;42.656;23.232;2023-12-20T02:18:08;24.53;;;11.97;;
61344;SDS011;47216;42.656;23.232;2023-12-20T02:20:34;23.73;;;10.93;;
61344;SDS011;47216;42.656;23.232;2023-12-20T02:23:03;15.40;;;7.57;;
61344;SDS011;47216;42.656;23.232;2023-12-20T02:25:30;17.03;;;8.13;;
61344;SDS011;47216;42.656;23.232;2023-12-20T02:27:56;10.30;;;4.90;;
61344;SDS011;47216;42.656;23.232;2023-12-20T02:30:23;11.47;;;5.93;;
61344;SDS011;47216;42.656;23.232;2023-12-20T02:32:50;18.77;;;7.47;;
61344;SDS011;47216;42.656;23.232;2023-12-20T02:35:18;14.73;;;7.93;;
61344;SDS011;47216;42.656;23.232;2023-12-20T02:37:45;12.57;;;6.57;;
61344;SDS011;47216;42.656;23.232;2023-12-20T02:40:13;26.57;;;13.10;;
61344;SDS011;47216;42.656;23.232;2023-12-20T02:42:40;25.07;;;11.93;;
61344;SDS011;47216;42.656;23.232;2023-12-20T02:45:07;60.10;;;38.67;;
61344;SDS011;47216;42.656;23.232;2023-12-20T02:47:34;13.00;;;6.97;;
61344;SDS011;47216;42.656;23.232;2023-12-20T02:50:01;13.37;;;6.77;;
61344;SDS011;47216;42.656;23.232;2023-12-20T02:52:28;12.10;;;5.57;;
61344;SDS011;47216;42.656;23.232;2023-12-20T02:54:55;8.67;;;5.07;;
61344;SDS011;47216;42.656;23.232;2023-12-20T02:57:23;10.87;;;5.30;;
61344;SDS011;47216;42.656;23.232;2023-12-20T02:59:50;10.10;;;5.37;;
61344;SDS011;47216;42.656;23.232;2023-12-20T03:02:16;12.77;;;5.23;;
61344;SDS011;47216;42.656;23.232;2023-12-20T03:04:42;7.83;;;4.83;;
61344;SDS011;47216;42.656;23.232;2023-12-20T03:07:09;7.07;;;4.83;;
61344;SDS011;47216;42.656;23.232;2023-12-20T03:09:37;9.53;;;5.13;;
61344;SDS011;47216;42.656;23.232;2023-12-20T03:12:04;12.17;;;5.13;;
61344;SDS011;47216;42.656;23.232;2023-12-20T03:14:32;9.87;;;5.33;;
61344;SDS011;47216;42.656;23.232;2023-12-20T03:16:59;12.53;;;6.83;;
61344;SDS011;47216;42.656;23.232;2023-12-20T03:19:25;24.07;;;10.33;;
61344;SDS011;47216;42.656;23.232;2023-12-20T03:21:52;12.90;;;7.67;;
61344;SDS011;47216;42.656;23.232;2023-12-20T03:24:19;12.70;;;6.53;;
61344;SDS011;47216;42.656;23.232;2023-12-20T03:26:46;14.30;;;6.97;;
61344;SDS011;47216;42.656;23.232;2023-12-20T03:29:12;13.77;;;6.80;;
61344;SDS011;47216;42.656;23.232;2023-12-20T03:31:41;9.97;;;6.57;;
61344;SDS011;47216;42.656;23.232;2023-12-20T03:34:07;13.37;;;7.60;;
61344;SDS011;47216;42.656;23.232;2023-12-20T03:36:34;19.40;;;7.93;;
61344;SDS011;47216;42.656;23.232;2023-12-20T03:39:01;25.60;;;10.40;;
61344;SDS011;47216;42.656;23.232;2023-12-20T03:41:28;22.10;;;9.03;;
61344;SDS011;47216;42.656;23.232;2023-12-20T03:43:54;14.50;;;6.60;;
61344;SDS011;47216;42.656;23.232;2023-12-20T03:46:21;12.53;;;7.17;;
61344;SDS011;47216;42.656;23.232;2023-12-20T03:48:49;16.17;;;6.43;;
61344;SDS011;47216;42.656;23.232;2023-12-20T03:51:16;12.40;;;6.57;;
61344;SDS011;47216;42.656;23.232;2023-12-20T03:53:43;12.90;;;6.10;;
61344;SDS011;47216;42.656;23.232;2023-12-20T03:56:10;12.07;;;6.20;;
61344;SDS011;47216;42.656;23.232;2023-12-20T03:58:36;12.50;;;6.43;;
61344;SDS011;47216;42.656;23.232;2023-12-20T04:01:08;13.37;;;5.70;;
61344;SDS011;47216;42.656;23.232;2023-12-20T04:03:37;16.60;;;6.53;;
61344;SDS011;47216;42.656;23.232;2023-12-20T04:06:06;10.40;;;6.07;;
61344;SDS011;47216;42.656;23.232;2023-12-20T04:08:33;16.57;;;5.90;;
61344;SDS011;47216;42.656;23.232;2023-12-20T04:11:00;12.60;;;6.23;;
61344;SDS011;47216;42.656;23.232;2023-12-20T04:13:27;12.53;;;6.20;;
61344;SDS011;47216;42.656;23.232;2023-12-20T04:15:53;10.23;;;5.63;;
61344;SDS011;47216;42.656;23.232;2023-12-20T04:18:20;14.40;;;5.67;;
61344;SDS011;47216;42.656;23.232;2023-12-20T04:20:47;10.33;;;5.90;;
61344;SDS011;47216;42.656;23.232;2023-12-20T04:23:18;10.50;;;5.33;;
61344;SDS011;47216;42.656;23.232;2023-12-20T04:25:44;8.80;;;5.53;;
61344;SDS011;47216;42.656;23.232;2023-12-20T04:28:12;8.83;;;5.53;;
61344;SDS011;47216;42.656;23.232;2023-12-20T04:30:38;8.77;;;5.53;;
61344;SDS011;47216;42.656;23.232;2023-12-20T04:33:05;13.80;;;7.97;;
61344;SDS011;47216;42.656;23.232;2023-12-20T04:35:32;9.83;;;6.67;;
61344;SDS011;47216;42.656;23.232;2023-12-20T04:37:59;10.30;;;6.30;;
61344;SDS011;47216;42.656;23.232;2023-12-20T04:40:27;23.60;;;14.50;;
61344;SDS011;47216;42.656;23.232;2023-12-20T04:42:54;9.87;;;6.30;;
61344;SDS011;47216;42.656;23.232;2023-12-20T04:45:20;11.30;;;6.23;;
61344;SDS011;47216;42.656;23.232;2023-12-20T04:47:48;16.43;;;7.60;;
61344;SDS011;47216;42.656;23.232;2023-12-20T04:50:15;12.00;;;7.63;;
61344;SDS011;47216;42.656;23.232;2023-12-20T04:52:42;13.53;;;9.17;;
61344;SDS011;47216;42.656;23.232;2023-12-20T04:55:09;20.33;;;13.37;;
61344;SDS011;47216;42.656;23.232;2023-12-20T04:57:37;14.47;;;8.33;;
61344;SDS011;47216;42.656;23.232;2023-12-20T05:00:05;18.90;;;8.63;;
61344;SDS011;47216;42.656;23.232;2023-12-20T05:02:33;14.37;;;7.20;;
61344;SDS011;47216;42.656;23.232;2023-12-20T05:05:00;13.47;;;8.50;;
61344;SDS011;47216;42.656;23.232;2023-12-20T05:07:27;15.50;;;11.03;;
61344;SDS011;47216;42.656;23.232;2023-12-20T05:09:54;12.67;;;7.67;;
61344;SDS011;47216;42.656;23.232;2023-12-20T05:12:21;10.73;;;7.43;;
61344;SDS011;47216;42.656;23.232;2023-12-20T05:14:51;15.07;;;8.23;;
61344;SDS011;47216;42.656;23.232;2023-12-20T05:17:18;15.80;;;7.60;;
61344;SDS011;47216;42.656;23.232;2023-12-20T05:19:45;11.87;;;7.07;;
61344;SDS011;47216;42.656;23.232;2023-12-20T05:22:12;12.83;;;7.20;;
61344;SDS011;47216;42.656;23.232;2023-12-20T05:24:39;21.30;;;10.43;;
61344;SDS011;47216;42.656;23.232;2023-12-20T05:27:06;15.83;;;8.10;;
61344;SDS011;47216;42.656;23.232;2023-12-20T05:29:33;12.93;;;7.77;;
61344;SDS011;47216;42.656;23.232;2023-12-20T05:32:01;13.60;;;7.47;;
61344;SDS011;47216;42.656;23.232;2023-12-20T05:34:29;14.90;;;9.40;;
61344;SDS011;47216;42.656;23.232;2023-12-20T05:36:57;19.07;;;10.47;;
61344;SDS011;47216;42.656;23.232;2023-12-20T05:39:24;18.53;;;9.40;;
61344;SDS011;47216;42.656;23.232;2023-12-20T05:41:50;18.20;;;9.70;;
61344;SDS011;47216;42.656;23.232;2023-12-20T05:44:18;51.20;;;18.87;;
61344;SDS011;47216;42.656;23.232;2023-12-20T05:46:44;32.80;;;14.53;;
61344;SDS011;47216;42.656;23.232;2023-12-20T05:49:12;91.77;;;28.23;;
61344;SDS011;47216;42.656;23.232;2023-12-20T05:51:39;24.33;;;11.40;;
61344;SDS011;47216;42.656;23.232;2023-12-20T05:54:06;22.67;;;11.17;;
61344;SDS011;47216;42.656;23.232;2023-12-20T05:56:34;25.73;;;10.83;;
61344;SDS011;47216;42.656;23.232;2023-12-20T05:59:00;30.03;;;12.60;;
61344;SDS011;47216;42.656;23.232;2023-12-20T06:01:27;46.87;;;18.20;;
61344;SDS011;47216;42.656;23.232;2023-12-20T06:03:54;57.77;;;17.83;;
61344;SDS011;47216;42.656;23.232;2023-12-20T06:06:23;15.53;;;10.00;;
61344;SDS011;47216;42.656;23.232;2023-12-20T06:08:50;19.93;;;11.80;;
61344;SDS011;47216;42.656;23.232;2023-12-20T06:11:16;15.77;;;8.70;;
61344;SDS011;47216;42.656;23.232;2023-12-20T06:13:43;18.20;;;9.37;;
61344;SDS011;47216;42.656;23.232;2023-12-20T06:16:10;12.83;;;8.50;;
61344;SDS011;47216;42.656;23.232;2023-12-20T06:18:37;13.60;;;8.60;;
61344;SDS011;47216;42.656;23.232;2023-12-20T06:21:03;18.97;;;10.67;;
61344;SDS011;47216;42.656;23.232;2023-12-20T06:23:33;13.43;;;8.27;;
61344;SDS011;47216;42.656;23.232;2023-12-20T06:26:00;17.53;;;9.43;;
61344;SDS011;47216;42.656;23.232;2023-12-20T06:28:27;18.83;;;10.57;;
61344;SDS011;47216;42.656;23.232;2023-12-20T06:30:54;17.27;;;9.23;;
61344;SDS011;47216;42.656;23.232;2023-12-20T06:33:22;22.07;;;11.83;;
61344;SDS011;47216;42.656;23.232;2023-12-20T06:35:49;17.63;;;10.80;;
61344;SDS011;47216;42.656;23.232;2023-12-20T06:38:17;21.80;;;11.10;;
61344;SDS011;47216;42.656;23.232;2023-12-20T06:40:45;18.93;;;10.63;;
61344;SDS011;47216;42.656;23.232;2023-12-20T06:43:12;17.90;;;10.70;;
61344;SDS011;47216;42.656;23.232;2023-12-20T06:45:39;17.30;;;9.70;;
61344;SDS011;47216;42.656;23.232;2023-12-20T06:48:06;18.57;;;11.43;;
61344;SDS011;47216;42.656;23.232;2023-12-20T06:50:33;21.77;;;13.00;;
61344;SDS011;47216;42.656;23.232;2023-12-20T06:53:04;28.23;;;16.43;;
61344;SDS011;47216;42.656;23.232;2023-12-20T06:55:32;34.23;;;18.10;;
61344;SDS011;47216;42.656;23.232;2023-12-20T06:58:01;18.67;;;12.00;;
61344;SDS011;47216;42.656;23.232;2023-12-20T07:00:27;23.37;;;13.30;;
61344;SDS011;47216;42.656;23.232;2023-12-20T07:02:54;29.77;;;15.33;;
61344;SDS011;47216;42.656;23.232;2023-12-20T07:05:21;24.70;;;14.40;;
61344;SDS011;47216;42.656;23.232;2023-12-20T07:07:48;26.27;;;15.00;;
61344;SDS011;47216;42.656;23.232;2023-12-20T07:10:15;27.20;;;14.50;;
61344;SDS011;47216;42.656;23.232;2023-12-20T07:12:41;35.27;;;16.77;;
61344;SDS011;47216;42.656;23.232;2023-12-20T07:15:10;30.57;;;15.70;;
61344;SDS011;47216;42.656;23.232;2023-12-20T07:17:37;41.47;;;24.30;;
61344;SDS011;47216;42.656;23.232;2023-12-20T07:20:05;35.13;;;16.50;;
61344;SDS011;47216;42.656;23.232;2023-12-20T07:22:35;41.07;;;19.37;;
61344;SDS011;47216;42.656;23.232;2023-12-20T07:25:02;37.60;;;18.60;;
61344;SDS011;47216;42.656;23.232;2023-12-20T07:27:29;66.37;;;27.87;;
61344;SDS011;47216;42.656;23.232;2023-12-20T07:29:56;42.03;;;19.27;;
61344;SDS011;47216;42.656;23.232;2023-12-20T07:32:24;49.97;;;21.47;;
61344;SDS011;47216;42.656;23.232;2023-12-20T07:34:51;92.63;;;34.93;;
61344;SDS011;47216;42.656;23.232;2023-12-20T07:37:18;51.17;;;23.43;;
61344;SDS011;47216;42.656;23.232;2023-12-20T07:39:46;44.77;;;21.40;;
61344;SDS011;47216;42.656;23.232;2023-12-20T07:42:13;37.80;;;19.40;;
61344;SDS011;47216;42.656;23.232;2023-12-20T07:44:39;27.83;;;14.00;;
61344;SDS011;47216;42.656;23.232;2023-12-20T07:47:06;23.70;;;13.97;;
61344;SDS011;47216;42.656;23.232;2023-12-20T07:49:34;24.93;;;15.50;;
61344;SDS011;47216;42.656;23.232;2023-12-20T07:52:01;36.17;;;18.90;;
61344;SDS011;47216;42.656;23.232;2023-12-20T07:54:28;39.30;;;20.83;;
61344;SDS011;47216;42.656;23.232;2023-12-20T07:56:55;39.33;;;22.50;;
61344;SDS011;47216;42.656;23.232;2023-12-20T07:59:21;47.23;;;25.37;;
61344;SDS011;47216;42.656;23.232;2023-12-20T08:01:48;43.43;;;24.40;;
61344;SDS011;47216;42.656;23.232;2023-12-20T08:04:15;45.17;;;25.27;;
61344;SDS011;47216;42.656;23.232;2023-12-20T08:06:43;51.83;;;26.03;;
61344;SDS011;47216;42.656;23.232;2023-12-20T08:09:10;53.30;;;26.83;;
61344;SDS011;47216;42.656;23.232;2023-12-20T08:11:37;46.67;;;27.03;;
61344;SDS011;47216;42.656;23.232;2023-12-20T08:14:03;49.47;;;26.73;;
61344;SDS011;47216;42.656;23.232;2023-12-20T08:16:30;51.00;;;26.63;;
61344;SDS011;47216;42.656;23.232;2023-12-20T08:18:57;44.93;;;26.47;;
61344;SDS011;47216;42.656;23.232;2023-12-20T08:21:24;49.73;;;27.70;;
61344;SDS011;47216;42.656;23.232;2023-12-20T08:23:52;47.97;;;26.60;;
61344;SDS011;47216;42.656;23.232;2023-12-20T08:26:19;50.60;;;26.10;;
61344;SDS011;47216;42.656;23.232;2023-12-20T08:28:47;45.30;;;26.07;;
61344;SDS011;47216;42.656;23.232;2023-12-20T08:31:15;52.97;;;28.23;;
61344;SDS011;47216;42.656;23.232;2023-12-20T08:33:43;50.67;;;28.53;;
61344;SDS011;47216;42.656;23.232;2023-12-20T08:36:10;59.30;;;33.17;;
61344;SDS011;47216;42.656;23.232;2023-12-20T08:38:37;60.67;;;30.90;;
61344;SDS011;47216;42.656;23.232;2023-12-20T08:41:06;56.73;;;32.37;;
61344;SDS011;47216;42.656;23.232;2023-12-20T08:43:33;56.03;;;31.50;;
61344;SDS011;47216;42.656;23.232;2023-12-20T08:46:01;56.27;;;31.47;;
61344;SDS011;47216;42.656;23.232;2023-12-20T08:48:28;56.93;;;29.70;;
61344;SDS011;47216;42.656;23.232;2023-12-20T08:50:54;58.07;;;31.27;;
61344;SDS011;47216;42.656;23.232;2023-12-20T08:53:21;57.80;;;30.87;;
61344;SDS011;47216;42.656;23.232;2023-12-20T08:55:48;53.47;;;28.47;;
61344;SDS011;47216;42.656;23.232;2023-12-20T08:58:16;57.53;;;30.13;;
61344;SDS011;47216;42.656;23.232;2023-12-20T09:00:43;59.33;;;30.63;;
61344;SDS011;47216;42.656;23.232;2023-12-20T09:03:10;53.93;;;30.37;;
61344;SDS011;47216;42.656;23.232;2023-12-20T09:05:36;65.30;;;32.20;;
61344;SDS011;47216;42.656;23.232;2023-12-20T09:08:03;57.53;;;31.37;;
61344;SDS011;47216;42.656;23.232;2023-12-20T09:10:32;53.43;;;30.33;;
61344;SDS011;47216;42.656;23.232;2023-12-20T09:12:59;55.67;;;31.03;;
61344;SDS011;47216;42.656;23.232;2023-12-20T09:15:27;57.67;;;29.83;;
61344;SDS011;47216;42.656;23.232;2023-12-20T09:17:55;65.20;;;32.83;;
61344;SDS011;47216;42.656;23.232;2023-12-20T09:20:22;58.77;;;33.03;;
61344;SDS011;47216;42.656;23.232;2023-12-20T09:22:49;60.33;;;33.27;;
61344;SDS011;47216;42.656;23.232;2023-12-20T09:25:16;60.93;;;32.60;;
61344;SDS011;47216;42.656;23.232;2023-12-20T09:27:43;64.07;;;33.67;;
61344;SDS011;47216;42.656;23.232;2023-12-20T09:30:10;67.50;;;34.43;;
61344;SDS011;47216;42.656;23.232;2023-12-20T09:32:38;71.80;;;34.60;;
61344;SDS011;47216;42.656;23.232;2023-12-20T09:35:05;74.17;;;37.33;;
61344;SDS011;47216;42.656;23.232;2023-12-20T09:37:33;73.97;;;38.67;;
61344;SDS011;47216;42.656;23.232;2023-12-20T09:40:00;82.53;;;39.50;;
61344;SDS011;47216;42.656;23.232;2023-12-20T09:42:29;84.53;;;38.93;;
61344;SDS011;47216;42.656;23.232;2023-12-20T09:45:04;83.17;;;40.70;;
61344;SDS011;47216;42.656;23.232;2023-12-20T09:47:35;77.77;;;39.50;;
61344;SDS011;47216;42.656;23.232;2023-12-20T09:50:03;80.50;;;39.43;;
61344;SDS011;47216;42.656;23.232;2023-12-20T09:52:31;85.97;;;41.17;;
61344;SDS011;47216;42.656;23.232;2023-12-20T09:55:00;75.43;;;38.53;;
61344;SDS011;47216;42.656;23.232;2023-12-20T09:57:31;81.57;;;39.17;;
61344;SDS011;47216;42.656;23.232;2023-12-20T09:59:58;83.83;;;39.27;;
61344;SDS011;47216;42.656;23.232;2023-12-20T10:02:25;84.80;;;40.17;;
61344;SDS011;47216;42.656;23.232;2023-12-20T10:04:53;83.83;;;42.27;;
61344;SDS011;47216;42.656;23.232;2023-12-20T10:07:22;84.60;;;41.47;;
61344;SDS011;47216;42.656;23.232;2023-12-20T10:09:49;89.23;;;42.50;;
61344;SDS011;47216;42.656;23.232;2023-12-20T10:12:20;77.53;;;38.97;;
61344;SDS011;47216;42.656;23.232;2023-12-20T10:14:47;81.73;;;40.43;;
61344;SDS011;47216;42.656;23.232;2023-12-20T10:17:13;83.47;;;40.97;;
61344;SDS011;47216;42.656;23.232;2023-12-20T10:19:42;82.23;;;41.13;;
61344;SDS011;47216;42.656;23.232;2023-12-20T10:22:10;84.03;;;39.93;;
61344;SDS011;47216;42.656;23.232;2023-12-20T10:24:39;81.80;;;40.17;;
61344;SDS011;47216;42.656;23.232;2023-12-20T10:27:06;78.07;;;40.27;;
61344;SDS011;47216;42.656;23.232;2023-12-20T10:29:36;79.23;;;41.03;;
61344;SDS011;47216;42.656;23.232;2023-12-20T10:34:50;76.97;;;40.23;;
61344;SDS011;47216;42.656;23.232;2023-12-20T10:37:17;92.70;;;41.43;;
61344;SDS011;47216;42.656;23.232;2023-12-20T10:39:46;82.93;;;40.67;;
61344;SDS011;47216;42.656;23.232;2023-12-20T10:42:18;79.43;;;40.73;;
61344;SDS011;47216;42.656;23.232;2023-12-20T10:44:47;79.97;;;40.23;;
61344;SDS011;47216;42.656;23.232;2023-12-20T10:47:15;85.40;;;41.03;;
61344;SDS011;47216;42.656;23.232;2023-12-20T10:49:46;77.37;;;41.77;;
61344;SDS011;47216;42.656;23.232;2023-12-20T10:52:13;73.93;;;38.97;;
61344;SDS011;47216;42.656;23.232;2023-12-20T10:54:40;78.57;;;43.17;;
61344;SDS011;47216;42.656;23.232;2023-12-20T10:57:08;85.63;;;42.13;;
61344;SDS011;47216;42.656;23.232;2023-12-20T10:59:37;77.57;;;43.03;;
61344;SDS011;47216;42.656;23.232;2023-12-20T11:02:04;82.07;;;41.47;;
61344;SDS011;47216;42.656;23.232;2023-12-20T11:04:34;80.20;;;41.37;;
61344;SDS011;47216;42.656;23.232;2023-12-20T11:07:07;81.93;;;41.90;;
61344;SDS011;47216;42.656;23.232;2023-12-20T11:09:48;81.87;;;42.37;;
61344;SDS011;47216;42.656;23.232;2023-12-20T11:12:24;94.13;;;47.60;;
61344;SDS011;47216;42.656;23.232;2023-12-20T11:15:01;97.97;;;47.00;;
61344;SDS011;47216;42.656;23.232;2023-12-20T11:17:31;105.40;;;48.87;;
61344;SDS011;47216;42.656;23.232;2023-12-20T11:20:05;106.17;;;50.37;;
61344;SDS011;47216;42.656;23.232;2023-12-20T11:22:39;75.47;;;41.03;;
61344;SDS011;47216;42.656;23.232;2023-12-20T11:25:19;74.50;;;39.17;;
61344;SDS011;47216;42.656;23.232;2023-12-20T11:28:08;83.40;;;43.23;;
61344;SDS011;47216;42.656;23.232;2023-12-20T11:30:42;85.03;;;45.37;;
61344;SDS011;47216;42.656;23.232;2023-12-20T11:33:12;79.60;;;43.67;;
61344;SDS011;47216;42.656;23.232;2023-12-20T11:35:40;85.43;;;42.30;;
61344;SDS011;47216;42.656;23.232;2023-12-20T11:38:09;79.93;;;41.90;;
61344;SDS011;47216;42.656;23.232;2023-12-20T11:40:38;81.30;;;43.80;;
61344;SDS011;47216;42.656;23.232;2023-12-20T11:43:09;91.97;;;44.30;;
61344;SDS011;47216;42.656;23.232;2023-12-20T11:45:37;84.37;;;44.43;;
61344;SDS011;47216;42.656;23.232;2023-12-20T11:48:15;80.80;;;45.30;;
61344;SDS011;47216;42.656;23.232;2023-12-20T11:50:50;87.40;;;43.17;;
61344;SDS011;47216;42.656;23.232;2023-12-20T11:53:27;82.43;;;44.60;;
61344;SDS011;47216;42.656;23.232;2023-12-20T11:55:58;84.50;;;43.53;;
61344;SDS011;47216;42.656;23.232;2023-12-20T11:58:27;75.43;;;42.40;;
61344;SDS011;47216;42.656;23.232;2023-12-20T12:01:09;79.53;;;41.67;;
61344;SDS011;47216;42.656;23.232;2023-12-20T12:03:49;82.37;;;43.07;;
61344;SDS011;47216;42.656;23.232;2023-12-20T12:06:51;74.60;;;41.53;;
61344;SDS011;47216;42.656;23.232;2023-12-20T12:09:24;76.73;;;41.97;;
61344;SDS011;47216;42.656;23.232;2023-12-20T12:12:12;86.27;;;43.73;;
61344;SDS011;47216;42.656;23.232;2023-12-20T12:18:18;74.70;;;41.33;;
61344;SDS011;47216;42.656;23.232;2023-12-20T12:20:48;86.60;;;42.23;;
61344;SDS011;47216;42.656;23.232;2023-12-20T12:23:22;83.13;;;43.50;;
61344;SDS011;47216;42.656;23.232;2023-12-20T12:25:50;95.77;;;46.17;;
61344;SDS011;47216;42.656;23.232;2023-12-20T12:28:34;92.40;;;45.70;;
61344;SDS011;47216;42.656;23.232;2023-12-20T12:31:02;84.03;;;43.10;;
61344;SDS011;47216;42.656;23.232;2023-12-20T12:34:30;86.50;;;44.03;;
61344;SDS011;47216;42.656;23.232;2023-12-20T12:37:23;83.50;;;43.33;;
61344;SDS011;47216;42.656;23.232;2023-12-20T12:40:10;97.47;;;46.10;;
61344;SDS011;47216;42.656;23.232;2023-12-20T12:42:43;99.77;;;45.57;;
61344;SDS011;47216;42.656;23.232;2023-12-20T12:45:12;92.70;;;46.40;;
61344;SDS011;47216;42.656;23.232;2023-12-20T12:47:48;92.03;;;43.97;;
61344;SDS011;47216;42.656;23.232;2023-12-20T12:50:39;88.90;;;44.97;;
61344;SDS011;47216;42.656;23.232;2023-12-20T12:53:43;82.47;;;43.33;;
61344;SDS011;47216;42.656;23.232;2023-12-20T12:56:07;88.27;;;45.53;;
61344;SDS011;47216;42.656;23.232;2023-12-20T12:58:34;91.70;;;44.10;;
61344;SDS011;47216;42.656;23.232;2023-12-20T13:01:01;88.40;;;44.70;;
61344;SDS011;47216;42.656;23.232;2023-12-20T13:03:28;85.03;;;45.17;;
61344;SDS011;47216;42.656;23.232;2023-12-20T13:06:00;94.40;;;47.17;;
61344;SDS011;47216;42.656;23.232;2023-12-20T13:08:29;92.50;;;46.57;;
61344;SDS011;47216;42.656;23.232;2023-12-20T13:11:19;94.13;;;47.30;;
61344;SDS011;47216;42.656;23.232;2023-12-20T13:13:49;103.27;;;47.07;;
61344;SDS011;47216;42.656;23.232;2023-12-20T13:16:17;97.83;;;48.53;;
61344;SDS011;47216;42.656;23.232;2023-12-20T13:18:44;100.30;;;48.17;;
61344;SDS011;47216;42.656;23.232;2023-12-20T13:21:12;92.33;;;46.63;;
61344;SDS011;47216;42.656;23.232;2023-12-20T13:23:53;94.30;;;45.80;;
61344;SDS011;47216;42.656;23.232;2023-12-20T13:26:20;84.23;;;44.57;;
61344;SDS011;47216;42.656;23.232;2023-12-20T13:28:49;90.13;;;46.37;;
61344;SDS011;47216;42.656;23.232;2023-12-20T13:31:19;86.90;;;44.43;;
61344;SDS011;47216;42.656;23.232;2023-12-20T13:33:46;94.07;;;45.40;;
61344;SDS011;47216;42.656;23.232;2023-12-20T13:36:14;92.67;;;44.73;;
61344;SDS011;47216;42.656;23.232;2023-12-20T13:38:43;94.20;;;44.73;;
61344;SDS011;47216;42.656;23.232;2023-12-20T13:41:32;84.30;;;44.40;;
61344;SDS011;47216;42.656;23.232;2023-12-20T13:44:20;88.90;;;43.57;;
61344;SDS011;47216;42.656;23.232;2023-12-20T13:47:23;88.77;;;42.57;;
61344;SDS011;47216;42.656;23.232;2023-12-20T13:49:50;82.03;;;43.77;;
61344;SDS011;47216;42.656;23.232;2023-12-20T13:52:19;85.90;;;43.70;;
61344;SDS011;47216;42.656;23.232;2023-12-20T13:54:48;87.60;;;43.47;;
61344;SDS011;47216;42.656;23.232;2023-12-20T13:57:18;78.67;;;41.43;;
61344;SDS011;47216;42.656;23.232;2023-12-20T13:59:45;82.30;;;42.53;;
61344;SDS011;47216;42.656;23.232;2023-12-20T14:02:11;89.93;;;41.27;;
61344;SDS011;47216;42.656;23.232;2023-12-20T14:04:38;77.73;;;39.73;;
61344;SDS011;47216;42.656;23.232;2023-12-20T14:07:06;82.77;;;40.73;;
61344;SDS011;47216;42.656;23.232;2023-12-20T14:09:35;80.90;;;41.57;;
61344;SDS011;47216;42.656;23.232;2023-12-20T14:12:10;77.10;;;38.53;;
61344;SDS011;47216;42.656;23.232;2023-12-20T14:14:45;77.23;;;39.10;;
61344;SDS011;47216;42.656;23.232;2023-12-20T14:17:31;85.13;;;39.37;;
61344;SDS011;47216;42.656;23.232;2023-12-20T14:20:19;77.53;;;39.73;;
61344;SDS011;47216;42.656;23.232;2023-12-20T14:25:48;81.13;;;40.37;;
61344;SDS011;47216;42.656;23.232;2023-12-20T14:28:40;73.10;;;38.27;;
61344;SDS011;47216;42.656;23.232;2023-12-20T14:31:07;80.40;;;41.23;;
61344;SDS011;47216;42.656;23.232;2023-12-20T14:33:35;82.73;;;39.73;;